Time;durP1;ratioP1;P1;durP2;ratioP2;P2;SDS_P1;SDS_P2;PMS_P1;PMS_P2;Temp;Humidity;BMP_temperature;BMP_pressure;BME280_temperature;BME280_humidity;BME280_pressure;Samples;Min_cycle;Max_cycle;Signal;HPM_P1;HPM_P2
2023/06/09 00:01:00;;;;;;;;;;;;;;;-140.72;89.75;52453.75;6245348;23;19961;-71
2023/06/09 00:03:26;;;;;;;;;;;;;;;-140.72;95.41;52429.41;6244173;23;19916;-72
2023/06/09 00:05:51;;;;;;;;;;;;;;;-140.72;99.84;52435.50;6244803;23;19934;-72
2023/06/09 00:08:17;;;;;;;;;;;;;;;-140.72;100.00;52417.25;6244483;23;19912;-72
2023/06/09 00:10:42;;;;;;;;;;;;;;;-140.72;100.00;52445.66;6244514;23;19942;-73
2023/06/09 00:13:07;;;;;;;;;;;;;;;-140.72;100.00;52433.47;6245078;23;20220;-72
2023/06/09 00:15:32;;;;;;;;;;;;;;;-140.72;100.00;52455.78;6245687;23;20001;-72
2023/06/09 00:17:58;;;;;;;;;;;;;;;-140.72;100.00;52457.81;6245406;23;19922;-72
2023/06/09 00:20:25;;;;;;;;;;;;;;;-140.72;100.00;52451.72;6245485;23;20328;-72
2023/06/09 00:22:51;;;;;;;;;;;;;;;-140.72;100.00;52451.72;6245805;23;19950;-72
2023/06/09 00:25:20;;;;;;;;;;;;;;;-140.72;100.00;52447.69;6244999;23;19915;-72
2023/06/09 00:27:45;;;;;;;;;;;;;;;-140.72;100.00;52431.44;6245724;23;20310;-72
2023/06/09 00:30:11;;;;;;;;;;;;;;;-140.72;100.00;52443.63;6245688;23;19918;-72
2023/06/09 00:32:49;;;;;;;;;;;;;;;-140.72;100.00;52461.88;6245056;23;19981;-72
2023/06/09 00:35:14;;;;;;;;;;;;;;;-140.72;100.00;52447.69;6245487;23;19915;-72
2023/06/09 00:37:41;;;;;;;;;;;;;;;-140.72;100.00;52423.31;6245337;23;19911;-71
2023/06/09 00:40:07;;;;;;;;;;;;;;;-140.72;100.00;52419.28;6218385;23;19999;-72
2023/06/09 00:42:33;;;;;;;;;;;;;;;-140.72;100.00;52478.13;6244841;23;19915;-71
2023/06/09 00:44:58;;;;;;;;;;;;;;;-140.72;100.00;52480.16;6245197;22;20045;-72
2023/06/09 00:47:23;;;;;;;;;;;;;;;-140.72;100.00;52447.69;6245268;23;19994;-71
2023/06/09 00:49:49;;;;;;;;;;;;;;;-140.72;100.00;52425.34;6245110;23;19995;-72
2023/06/09 00:52:20;;;;;;;;;;;;;;;-140.72;100.00;52445.66;6245824;23;19912;-72
2023/06/09 00:54:45;;;;;;;;;;;;;;;-140.72;100.00;52459.84;6245744;23;19912;-72
2023/06/09 00:57:11;;;;;;;;;;;;;;;-140.72;100.00;52465.94;6218420;23;19936;-72
2023/06/09 00:59:37;;;;;;;;;;;;;;;-140.72;100.00;52459.84;6245088;23;19911;-72
2023/06/09 01:02:04;;;;;;;;;;;;;;;-140.72;100.00;52474.06;6245053;23;19919;-72
2023/06/09 01:04:32;;;;;;;;;;;;;;;-140.72;100.00;52488.25;6245094;23;19987;-72
2023/06/09 01:07:00;;;;;;;;;;;;;;;-140.72;100.00;52461.88;6245278;23;19916;-72
2023/06/09 01:09:41;;;;;;;;;;;;;;;-140.72;100.00;52490.28;6218064;23;19912;-72
2023/06/09 01:12:12;;;;;;;;;;;;;;;-140.72;100.00;52465.94;6245395;23;19991;-72
2023/06/09 01:14:45;;;;;;;;;;;;;;;-140.72;100.00;52465.94;6244712;23;20036;-72
2023/06/09 01:17:22;;;;;;;;;;;;;;;-140.72;100.00;52459.84;6244705;23;19911;-72
2023/06/09 01:19:50;;;;;;;;;;;;;;;-140.72;100.00;52488.25;6217698;23;19955;-72
2023/06/09 01:22:44;;;;;;;;;;;;;;;-140.72;100.00;52484.19;6217524;23;19977;-72
2023/06/09 01:25:26;;;;;;;;;;;;;;;-140.72;100.00;52445.66;6217100;23;19912;-72
2023/06/09 01:27:57;;;;;;;;;;;;;;;-140.72;100.00;52467.97;6244696;23;19945;-72
2023/06/09 01:30:23;;;;;;;;;;;;;;;-140.72;100.00;52524.78;6248623;23;19916;-72
2023/06/09 01:32:49;;;;;;;;;;;;;;;-140.72;100.00;52463.91;6218326;23;20003;-72
2023/06/09 01:35:14;;;;;;;;;;;;;;;-140.72;100.00;52484.19;6245050;23;20252;-72
2023/06/09 01:37:42;;;;;;;;;;;;;;;-140.72;100.00;52490.28;6220029;23;19915;-72
2023/06/09 01:40:08;;;;;;;;;;;;;;;-140.72;100.00;52488.25;6218863;23;19924;-72
2023/06/09 01:42:35;;;;;;;;;;;;;;;-140.72;100.00;52492.31;6222409;23;20350;-72
2023/06/09 01:45:00;;;;;;;;;;;;;;;-140.72;100.00;52500.44;6246561;22;19931;-72
2023/06/09 01:47:26;;;;;;;;;;;;;;;-140.72;100.00;52478.13;6220055;23;20006;-72
2023/06/09 01:50:00;;;;;;;;;;;;;;;-140.72;100.00;52508.56;6218565;23;19942;-72
2023/06/09 01:52:28;;;;;;;;;;;;;;;-140.72;100.00;52480.16;6218545;23;20220;-72
2023/06/09 01:55:02;;;;;;;;;;;;;;;-140.72;100.00;52498.41;6245086;23;19911;-72
2023/06/09 01:57:33;;;;;;;;;;;;;;;-140.72;100.00;52459.84;6245074;23;19923;-72
2023/06/09 02:00:04;;;;;;;;;;;;;;;-140.72;100.00;52504.50;6245011;23;20379;-72
2023/06/09 02:02:32;;;;;;;;;;;;;;;-140.72;100.00;52522.75;6217973;23;20350;-72
2023/06/09 02:04:58;;;;;;;;;;;;;;;-140.72;100.00;52506.53;6245045;23;19957;-72
2023/06/09 02:07:24;;;;;;;;;;;;;;;-140.72;100.00;52474.06;6244968;23;20288;-72
2023/06/09 02:09:50;;;;;;;;;;;;;;;-140.72;100.00;52474.06;6217904;23;19947;-72
2023/06/09 02:12:15;;;;;;;;;;;;;;;-140.72;100.00;52480.16;6244739;23;19922;-72
2023/06/09 02:14:41;;;;;;;;;;;;;;;-140.72;100.00;52472.03;6244667;23;20343;-72
2023/06/09 02:17:08;;;;;;;;;;;;;;;-140.72;100.00;52476.09;6244701;23;19934;-72
2023/06/09 02:19:37;;;;;;;;;;;;;;;-140.72;100.00;52474.06;6216954;23;20328;-72
2023/06/09 02:22:03;;;;;;;;;;;;;;;-140.72;100.00;52512.59;6244518;23;19915;-72
2023/06/09 02:24:28;;;;;;;;;;;;;;;-140.72;100.00;52504.50;6244812;23;19969;-72
2023/06/09 02:26:54;;;;;;;;;;;;;;;-140.72;100.00;52470.00;6244659;23;19919;-72
2023/06/09 02:29:20;;;;;;;;;;;;;;;-140.72;100.00;52541.03;6217679;23;19982;-72
2023/06/09 02:31:45;;;;;;;;;;;;;;;-140.72;100.00;52500.44;6218355;23;19911;-72
2023/06/09 02:34:26;;;;;;;;;;;;;;;-140.72;100.00;52496.38;6217270;23;19983;-72
2023/06/09 02:36:55;;;;;;;;;;;;;;;-140.72;100.00;52536.97;6218205;23;20010;-72
2023/06/09 02:39:21;;;;;;;;;;;;;;;-140.72;100.00;52536.97;6217409;23;19981;-72
2023/06/09 02:41:47;;;;;;;;;;;;;;;-140.72;100.00;52474.06;6217343;23;19992;-72
2023/06/09 02:44:31;;;;;;;;;;;;;;;-140.72;100.00;52526.81;6217293;23;19992;-72
2023/06/09 02:46:57;;;;;;;;;;;;;;;-140.72;100.00;52500.44;6245025;23;19915;-72
2023/06/09 02:49:22;;;;;;;;;;;;;;;-140.72;100.00;52478.13;6244750;23;19961;-72
2023/06/09 02:51:47;;;;;;;;;;;;;;;-140.72;100.00;52506.53;6217825;23;19912;-72
2023/06/09 02:54:12;;;;;;;;;;;;;;;-140.72;100.00;52463.91;6244961;23;19912;-72
2023/06/09 02:56:37;;;;;;;;;;;;;;;-140.72;100.00;52461.88;6244070;23;19927;-72
2023/06/09 02:59:03;;;;;;;;;;;;;;;-140.72;100.00;52512.59;6246455;23;19918;-72
2023/06/09 03:01:34;;;;;;;;;;;;;;;-140.72;100.00;52461.88;6217309;23;19918;-72
2023/06/09 03:04:00;;;;;;;;;;;;;;;-140.72;100.00;52518.69;6244653;23;19964;-72
2023/06/09 03:06:25;;;;;;;;;;;;;;;-140.72;100.00;52512.59;6243973;23;19946;-72
2023/06/09 03:08:50;;;;;;;;;;;;;;;-140.72;100.00;52498.41;6243810;23;19911;-72
2023/06/09 03:11:16;;;;;;;;;;;;;;;-140.72;100.00;52500.44;6217595;23;19925;-72
2023/06/09 03:13:41;;;;;;;;;;;;;;;-140.72;100.00;52494.34;6244559;23;19911;-72
2023/06/09 03:16:06;;;;;;;;;;;;;;;-140.72;100.00;52494.34;6244362;23;19990;-72
2023/06/09 03:18:31;;;;;;;;;;;;;;;-140.72;100.00;52484.19;6245940;23;19927;-72
2023/06/09 03:21:01;;;;;;;;;;;;;;;-140.72;100.00;52472.03;6244108;23;19912;-72
2023/06/09 03:23:26;;;;;;;;;;;;;;;-140.72;100.00;52486.22;6217689;23;20374;-72
2023/06/09 03:25:51;;;;;;;;;;;;;;;-140.72;100.00;52488.25;6244171;23;19915;-72
2023/06/09 03:28:17;;;;;;;;;;;;;;;-140.72;100.00;52547.09;6217507;23;19958;-72
2023/06/09 03:30:43;;;;;;;;;;;;;;;-140.72;100.00;52510.59;6244005;23;20286;-72
2023/06/09 03:33:08;;;;;;;;;;;;;;;-140.72;100.00;52488.25;6244850;23;19918;-71
2023/06/09 03:35:33;;;;;;;;;;;;;;;-140.72;100.00;52543.03;6245029;23;19919;-72
2023/06/09 03:37:59;;;;;;;;;;;;;;;-140.72;100.00;52508.56;6244638;23;19918;-72
2023/06/09 03:40:24;;;;;;;;;;;;;;;-140.72;100.00;52516.66;6244620;23;19938;-72
2023/06/09 03:42:49;;;;;;;;;;;;;;;-140.72;100.00;52514.63;6244393;23;19916;-72
2023/06/09 03:45:14;;;;;;;;;;;;;;;-140.72;100.00;52496.38;6244234;22;19919;-72
2023/06/09 03:47:40;;;;;;;;;;;;;;;-140.72;100.00;52547.09;6216857;23;19911;-72
2023/06/09 03:50:05;;;;;;;;;;;;;;;-140.72;100.00;52498.41;6245672;23;19911;-71
2023/06/09 03:52:31;;;;;;;;;;;;;;;-140.72;100.00;52524.78;6219172;23;19916;-72
2023/06/09 03:54:56;;;;;;;;;;;;;;;-140.72;100.00;52500.44;6245617;23;19938;-72
2023/06/09 03:57:21;;;;;;;;;;;;;;;-140.72;100.00;52498.41;6245773;23;19931;-72
2023/06/09 03:59:46;;;;;;;;;;;;;;;-140.72;100.00;52508.56;6245911;23;20660;-71
2023/06/09 04:02:11;;;;;;;;;;;;;;;-140.72;100.00;52484.19;6220531;23;19915;-73
2023/06/09 04:04:38;;;;;;;;;;;;;;;-140.72;100.00;52500.44;6246158;23;19923;-73
2023/06/09 04:07:04;;;;;;;;;;;;;;;-140.72;100.00;52494.34;6219592;23;19935;-74
2023/06/09 04:09:32;;;;;;;;;;;;;;;-140.72;100.00;52516.66;6220942;23;19912;-74
2023/06/09 04:11:57;;;;;;;;;;;;;;;-140.72;100.00;52553.19;6219847;23;19952;-73
2023/06/09 04:14:22;;;;;;;;;;;;;;;-140.72;100.00;52498.41;6245935;23;20243;-73
2023/06/09 04:16:47;;;;;;;;;;;;;;;-140.72;100.00;52465.94;6219775;23;19957;-74
2023/06/09 04:19:13;;;;;;;;;;;;;;;-140.72;100.00;52498.41;6218420;23;19916;-73
2023/06/09 04:21:38;;;;;;;;;;;;;;;-140.72;100.00;52472.03;6219563;23;19912;-74
2023/06/09 04:24:04;;;;;;;;;;;;;;;-140.72;100.00;52508.56;6246646;23;19911;-74
2023/06/09 04:26:32;;;;;;;;;;;;;;;-140.72;100.00;52496.38;6245859;23;20430;-73
2023/06/09 04:28:58;;;;;;;;;;;;;;;-140.72;100.00;52478.13;6218794;23;20286;-74
2023/06/09 04:31:23;;;;;;;;;;;;;;;-140.72;100.00;52512.59;6245762;23;19957;-75
2023/06/09 04:33:53;;;;;;;;;;;;;;;-140.72;100.00;52506.53;6246350;23;19941;-75
2023/06/09 04:36:20;;;;;;;;;;;;;;;-140.72;100.00;52488.25;6217974;23;19922;-74
2023/06/09 04:38:46;;;;;;;;;;;;;;;-140.72;100.00;52492.31;6245895;23;19911;-73
2023/06/09 04:41:11;;;;;;;;;;;;;;;-140.72;100.00;52496.38;6245508;23;19933;-73
2023/06/09 04:43:39;;;;;;;;;;;;;;;-140.72;100.00;52516.66;6218158;22;19915;-72
2023/06/09 04:46:05;;;;;;;;;;;;;;;-140.72;100.00;52502.47;6218270;23;19918;-73
2023/06/09 04:48:30;;;;;;;;;;;;;;;-140.72;100.00;52467.97;6245181;23;19911;-73
2023/06/09 04:50:56;;;;;;;;;;;;;;;-140.72;100.00;52500.44;6245031;23;19915;-74
2023/06/09 04:53:22;;;;;;;;;;;;;;;-140.72;100.00;52480.16;6218494;23;19921;-73
2023/06/09 04:55:48;;;;;;;;;;;;;;;-140.72;100.00;52480.16;6244985;23;20074;-73
2023/06/09 04:58:15;;;;;;;;;;;;;;;-140.72;100.00;52500.44;6217377;23;19912;-73
2023/06/09 05:00:41;;;;;;;;;;;;;;;-140.72;100.00;52472.03;6243979;23;19984;-73
2023/06/09 05:03:06;;;;;;;;;;;;;;;-140.72;100.00;52518.69;6244801;23;19912;-73
2023/06/09 05:05:31;;;;;;;;;;;;;;;-140.72;100.00;52510.59;6244723;23;20270;-74
2023/06/09 05:07:56;;;;;;;;;;;;;;;-140.72;100.00;52457.81;6245808;23;19938;-73
2023/06/09 05:10:22;;;;;;;;;;;;;;;-140.72;100.00;52500.44;6218284;23;19950;-72
2023/06/09 05:12:48;;;;;;;;;;;;;;;-140.72;100.00;52459.84;6246113;23;20280;-74
2023/06/09 05:15:13;;;;;;;;;;;;;;;-140.72;100.00;52449.72;6218951;23;19911;-72
2023/06/09 05:17:41;;;;;;;;;;;;;;;-140.72;100.00;52480.16;6221041;23;20532;-72
2023/06/09 05:20:07;;;;;;;;;;;;;;;-140.72;100.00;52514.63;6247769;23;19911;-72
2023/06/09 05:22:33;;;;;;;;;;;;;;;-140.72;100.00;52496.38;6245442;23;20410;-72
2023/06/09 05:24:58;;;;;;;;;;;;;;;-140.72;100.00;52514.63;6245103;23;19912;-72
2023/06/09 05:27:24;;;;;;;;;;;;;;;-140.72;100.00;52459.84;6246635;23;19912;-72
2023/06/09 05:29:49;;;;;;;;;;;;;;;-140.72;100.00;52500.44;6245315;23;19991;-72
2023/06/09 05:32:15;;;;;;;;;;;;;;;-140.72;100.00;52453.75;6244513;23;20026;-72
2023/06/09 05:34:40;;;;;;;;;;;;;;;-140.72;100.00;52476.09;6217251;23;19973;-72
2023/06/09 05:37:06;;;;;;;;;;;;;;;-140.72;100.00;52480.16;6244642;23;19911;-72
2023/06/09 05:39:31;;;;;;;;;;;;;;;-140.72;100.00;52478.13;6245237;23;20332;-71
2023/06/09 05:41:56;;;;;;;;;;;;;;;-140.72;100.00;52447.69;6244993;23;19927;-72
2023/06/09 05:44:22;;;;;;;;;;;;;;;-140.72;100.00;52480.16;6245178;22;19915;-71
2023/06/09 05:46:47;;;;;;;;;;;;;;;-140.72;100.00;52443.63;6247267;23;19918;-72
2023/06/09 05:49:12;;;;;;;;;;;;;;;-140.72;100.00;52449.72;6219196;23;19954;-72
2023/06/09 05:51:37;;;;;;;;;;;;;;;-140.72;100.00;52453.75;6244541;23;19961;-73
2023/06/09 05:54:03;;;;;;;;;;;;;;;-140.72;100.00;52433.47;6244844;23;19911;-74
2023/06/09 05:56:29;;;;;;;;;;;;;;;-140.72;100.00;52439.56;6217347;23;19930;-75
2023/06/09 05:59:02;;;;;;;;;;;;;;;-140.72;100.00;52472.03;6247098;23;19912;-74
2023/06/09 06:01:27;;;;;;;;;;;;;;;-140.72;100.00;52457.81;6223532;23;19916;-74
2023/06/09 06:03:53;;;;;;;;;;;;;;;-140.72;100.00;52425.34;6223626;23;19934;-75
2023/06/09 06:06:18;;;;;;;;;;;;;;;-140.72;100.00;52431.44;6245570;23;19919;-73
2023/06/09 06:08:44;;;;;;;;;;;;;;;-140.72;100.00;52417.25;6247164;23;19919;-74
2023/06/09 06:11:09;;;;;;;;;;;;;;;-140.72;100.00;52437.53;6245353;23;20354;-73
2023/06/09 06:13:34;;;;;;;;;;;;;;;-140.72;100.00;52431.44;6244859;23;20216;-72
2023/06/09 06:16:00;;;;;;;;;;;;;;;-140.72;100.00;52439.56;6244196;23;19944;-72
2023/06/09 06:18:25;;;;;;;;;;;;;;;-140.72;97.47;52425.34;6242823;23;19916;-73
2023/06/09 06:20:50;;;;;;;;;;;;;;;-140.72;92.39;52415.22;6217351;23;19969;-73
2023/06/09 06:23:16;;;;;;;;;;;;;;;-140.72;83.65;52429.41;6244432;23;19965;-72
2023/06/09 06:25:41;;;;;;;;;;;;;;;-140.72;58.31;52403.03;6244036;23;20308;-73
2023/06/09 06:28:20;;;;;;;;;;;;;;;-140.72;54.49;52382.75;6244302;23;19995;-72
2023/06/09 06:30:45;;;;;;;;;;;;;;;-140.72;35.45;52362.44;6244457;23;19916;-73
2023/06/09 06:33:11;;;;;;;;;;;;;;;-140.72;28.00;52386.81;6218133;23;20328;-73
2023/06/09 06:35:36;;;;;;;;;;;;;;;-140.72;14.24;52415.22;6216980;23;19947;-73
2023/06/09 06:38:01;;;;;;;;;;;;;;;-140.72;12.76;52356.38;6217536;23;20243;-73
2023/06/09 06:40:27;;;;;;;;;;;;;;;-140.72;12.28;52419.28;6244678;23;19911;-72
2023/06/09 06:42:52;;;;;;;;;;;;;;;-140.72;11.13;52392.88;6243862;23;19958;-72
2023/06/09 06:45:17;;;;;;;;;;;;;;;-140.72;1.78;52384.78;6217200;23;19919;-72
2023/06/09 06:47:43;;;;;;;;;;;;;;;-140.72;0.00;52352.31;6244327;23;19997;-72
2023/06/09 06:50:18;;;;;;;;;;;;;;;-140.72;0.00;52372.59;6244749;23;19915;-74
2023/06/09 06:52:44;;;;;;;;;;;;;;;-140.72;0.00;52356.38;6244263;23;20015;-77
2023/06/09 06:55:10;;;;;;;;;;;;;;;-140.72;0.00;52356.38;6217976;23;19938;-71
2023/06/09 06:57:35;;;;;;;;;;;;;;;-140.72;0.00;52366.50;6244187;23;19911;-73
2023/06/09 07:00:05;;;;;;;;;;;;;;;-140.72;0.00;52344.19;6217348;23;19911;-74
2023/06/09 07:02:31;;;;;;;;;;;;;;;-140.72;0.00;52336.06;6246337;23;19972;-76
2023/06/09 07:04:56;;;;;;;;;;;;;;;-140.72;0.00;52368.53;6246053;23;19973;-77
2023/06/09 07:07:25;;;;;;;;;;;;;;;-140.72;0.00;52330.00;6218175;23;19919;-78
2023/06/09 07:09:50;;;;;;;;;;;;;;;-140.72;0.00;52350.28;6221596;23;19982;-72
2023/06/09 07:12:16;;;;;;;;;;;;;;;-140.72;0.00;52344.19;6221294;23;19923;-72
2023/06/09 07:14:41;;;;;;;;;;;;;;;-140.72;0.00;52334.03;6244947;23;20054;-72
2023/06/09 07:17:06;;;;;;;;;;;;;;;-140.72;0.00;52366.50;6244402;23;19912;-73
2023/06/09 07:19:31;;;;;;;;;;;;;;;-140.72;0.00;52338.09;6216458;23;20053;-71
2023/06/09 07:21:57;;;;;;;;;;;;;;;-140.72;0.00;52330.00;6243582;23;19911;-72
2023/06/09 07:24:22;;;;;;;;;;;;;;;-140.72;0.00;52311.72;6243497;23;20270;-72
2023/06/09 07:26:47;;;;;;;;;;;;;;;-140.72;0.00;52317.81;6215403;23;20464;-72
2023/06/09 07:29:13;;;;;;;;;;;;;;;-140.72;0.00;52321.88;6242129;23;19916;-72
2023/06/09 07:31:38;;;;;;;;;;;;;;;-140.72;0.00;52279.25;6243751;23;19965;-72
2023/06/09 07:34:04;;;;;;;;;;;;;;;-140.72;0.00;52317.81;6217145;23;19911;-71
2023/06/09 07:36:29;;;;;;;;;;;;;;;-140.72;0.00;52258.97;6243927;23;20042;-72
2023/06/09 07:38:55;;;;;;;;;;;;;;;-140.72;0.00;52342.16;6217942;23;19954;-72
2023/06/09 07:41:20;;;;;;;;;;;;;;;-140.72;0.00;52299.56;6217373;23;19980;-72
2023/06/09 07:43:46;;;;;;;;;;;;;;;-140.72;0.00;52297.53;6217564;22;19911;-72
2023/06/09 07:46:13;;;;;;;;;;;;;;;-140.72;0.00;52283.31;6217619;23;19935;-72
2023/06/09 07:48:39;;;;;;;;;;;;;;;-140.72;0.00;52279.25;6217617;23;19912;-72
2023/06/09 07:51:04;;;;;;;;;;;;;;;-140.72;0.00;52236.66;6244847;23;19922;-72
2023/06/09 07:53:30;;;;;;;;;;;;;;;-140.72;0.00;52263.03;6244745;23;19916;-72
2023/06/09 07:55:55;;;;;;;;;;;;;;;-140.72;0.00;52226.50;6245320;23;19922;-72
2023/06/09 07:58:20;;;;;;;;;;;;;;;-140.72;0.00;52234.63;6244966;23;19916;-72
2023/06/09 08:00:45;;;;;;;;;;;;;;;-140.72;0.00;52232.59;6244848;23;19920;-72
2023/06/09 08:03:11;;;;;;;;;;;;;;;-140.72;0.00;52244.78;6244597;23;19919;-72
2023/06/09 08:05:36;;;;;;;;;;;;;;;-140.72;0.00;52236.66;6244372;23;19918;-72
2023/06/09 08:08:02;;;;;;;;;;;;;;;-140.72;0.00;52198.09;6246392;23;19923;-70
2023/06/09 08:10:28;;;;;;;;;;;;;;;-140.72;0.00;52248.81;6245355;23;20269;-71
2023/06/09 08:12:53;;;;;;;;;;;;;;;-140.72;0.00;52200.13;6244645;23;19987;-71
2023/06/09 08:15:18;;;;;;;;;;;;;;;-140.72;0.00;52189.97;6217264;23;19912;-71
2023/06/09 08:17:43;;;;;;;;;;;;;;;-140.72;0.00;52196.06;6244086;23;19987;-71
2023/06/09 08:20:09;;;;;;;;;;;;;;;-140.72;0.00;52198.09;6244547;23;19915;-71
2023/06/09 08:22:34;;;;;;;;;;;;;;;-140.72;0.00;52147.38;6244160;23;20252;-71
2023/06/09 08:25:00;;;;;;;;;;;;;;;-140.72;0.00;52175.78;6218814;23;19912;-71
2023/06/09 08:27:25;;;;;;;;;;;;;;;-140.72;0.00;52151.44;6244570;23;19912;-71
2023/06/09 08:29:50;;;;;;;;;;;;;;;-140.72;0.00;52167.66;6243933;23;19912;-71
2023/06/09 08:32:16;;;;;;;;;;;;;;;-140.72;0.00;52149.41;6243644;23;19911;-72
2023/06/09 08:34:41;;;;;;;;;;;;;;;-140.72;0.00;52129.13;6245061;23;19934;-72
2023/06/09 08:37:08;;;;;;;;;;;;;;;-140.72;0.00;52139.25;6245982;23;20081;-71
2023/06/09 08:39:39;;;;;;;;;;;;;;;-140.72;0.00;52137.22;6244750;23;20260;-72
2023/06/09 08:42:06;;;;;;;;;;;;;;;-140.72;0.00;52147.38;6246252;23;19982;-72
2023/06/09 08:44:38;;;;;;;;;;;;;;;-140.72;0.00;52094.63;6245592;22;19922;-72
2023/06/09 08:47:03;;;;;;;;;;;;;;;-140.72;0.00;52139.25;6245939;23;20007;-72
2023/06/09 08:49:29;;;;;;;;;;;;;;;-140.72;0.00;52106.78;6246524;23;19965;-72
2023/06/09 08:51:55;;;;;;;;;;;;;;;-140.72;0.00;52074.34;6246118;23;19958;-72
2023/06/09 08:54:44;;;;;;;;;;;;;;;-140.72;0.00;52100.72;6245889;23;19950;-73
2023/06/09 08:57:10;;;;;;;;;;;;;;;-140.72;0.00;52066.22;6218738;23;19919;-73
2023/06/09 09:00:09;;;;;;;;;;;;;;;-140.72;0.00;52076.34;6245622;23;20324;-73
2023/06/09 09:02:34;;;;;;;;;;;;;;;-140.72;0.00;52076.34;6246590;23;19911;-73
2023/06/09 09:05:00;;;;;;;;;;;;;;;-140.72;0.00;52037.81;6245610;23;20382;-74
2023/06/09 09:07:25;;;;;;;;;;;;;;;-140.72;0.00;52037.81;6245530;23;19919;-73
2023/06/09 09:09:51;;;;;;;;;;;;;;;-140.72;0.00;52056.06;6245655;23;19919;-73
2023/06/09 09:12:16;;;;;;;;;;;;;;;-140.72;0.00;51976.94;6246028;23;19911;-73
2023/06/09 09:14:45;;;;;;;;;;;;;;;-140.72;0.00;52009.41;6245101;23;19930;-72
2023/06/09 09:17:11;;;;;;;;;;;;;;;-140.72;0.00;52072.31;6218472;23;19978;-73
2023/06/09 09:19:36;;;;;;;;;;;;;;;-140.72;0.00;51978.97;6245727;23;19950;-72
2023/06/09 09:22:06;;;;;;;;;;;;;;;-140.72;0.00;52025.63;6245754;23;19915;-72
2023/06/09 09:24:31;;;;;;;;;;;;;;;-140.72;0.00;52031.72;6244856;23;19919;-72
2023/06/09 09:26:56;;;;;;;;;;;;;;;-140.72;0.00;52023.59;6245404;23;19911;-72
2023/06/09 09:29:25;;;;;;;;;;;;;;;-140.72;0.00;52017.53;6245530;23;19991;-72
2023/06/09 09:31:55;;;;;;;;;;;;;;;-140.72;0.00;51993.19;6247252;23;19918;-72
2023/06/09 09:34:20;;;;;;;;;;;;;;;-140.72;0.00;51956.66;6245198;23;19939;-72
2023/06/09 09:36:45;;;;;;;;;;;;;;;-140.72;0.00;51964.78;6245525;23;19912;-72
2023/06/09 09:39:11;;;;;;;;;;;;;;;-140.72;0.00;51985.06;6245735;23;19960;-71
2023/06/09 09:41:36;;;;;;;;;;;;;;;-140.72;0.00;51972.88;6245155;23;20201;-71
2023/06/09 09:44:01;;;;;;;;;;;;;;;-140.72;0.00;51956.66;6245548;22;20060;-71
2023/06/09 09:46:26;;;;;;;;;;;;;;;-140.72;0.00;51926.22;6244767;23;19916;-72
2023/06/09 09:48:53;;;;;;;;;;;;;;;-140.72;0.00;51893.75;6217810;23;19970;-73
2023/06/09 09:51:20;;;;;;;;;;;;;;;-140.72;0.00;51897.81;6245295;23;19995;-71
2023/06/09 09:53:46;;;;;;;;;;;;;;;-140.72;0.00;51920.13;6245397;23;19993;-72
2023/06/09 09:56:13;;;;;;;;;;;;;;;-140.72;0.00;51948.53;6244864;23;19938;-72
2023/06/09 09:58:41;;;;;;;;;;;;;;;-140.72;0.00;51891.72;6219162;23;19962;-74
2023/06/09 10:01:07;;;;;;;;;;;;;;;-140.72;0.00;51924.19;6219842;23;19912;-74
2023/06/09 10:03:42;;;;;;;;;;;;;;;-140.72;0.00;51907.97;6245652;23;19916;-72
2023/06/09 10:06:11;;;;;;;;;;;;;;;-140.72;0.00;51910.00;6244722;23;19912;-71
2023/06/09 10:08:38;;;;;;;;;;;;;;;-140.72;0.00;51867.38;6217401;23;19956;-71
2023/06/09 10:11:03;;;;;;;;;;;;;;;-140.72;0.00;51861.28;6244914;23;19935;-73
2023/06/09 10:13:43;;;;;;;;;;;;;;;-140.72;0.00;51853.19;6245034;23;19912;-72
2023/06/09 10:16:23;;;;;;;;;;;;;;;-140.72;0.00;51867.38;6244649;23;19912;-73
2023/06/09 10:18:49;;;;;;;;;;;;;;;-140.72;0.00;51867.38;6243974;23;19915;-74
2023/06/09 10:21:15;;;;;;;;;;;;;;;-140.72;0.00;51806.53;6217811;23;20287;-75
2023/06/09 10:23:42;;;;;;;;;;;;;;;-140.72;0.00;51814.63;6244804;23;20240;-74
2023/06/09 10:26:08;;;;;;;;;;;;;;;-140.72;0.00;51820.72;6248703;23;19934;-73
2023/06/09 10:28:34;;;;;;;;;;;;;;;-140.72;0.00;51810.56;6222730;23;19912;-74
2023/06/09 10:31:00;;;;;;;;;;;;;;;-140.72;0.00;51776.09;6223149;23;19918;-73
2023/06/09 10:33:27;;;;;;;;;;;;;;;-140.72;0.00;51751.75;6224417;23;19916;-77
2023/06/09 10:35:56;;;;;;;;;;;;;;;-140.72;0.00;51761.88;6250295;23;19960;-74
2023/06/09 10:38:53;;;;;;;;;;;;;;;-140.72;0.00;51763.91;6245357;23;19965;-76
2023/06/09 10:41:20;;;;;;;;;;;;;;;-140.72;0.00;51765.94;6245817;23;19950;-73
2023/06/09 10:44:03;;;;;;;;;;;;;;;-140.72;0.00;51701.03;6244844;22;19912;-74
2023/06/09 10:46:42;;;;;;;;;;;;;;;-140.72;0.00;51680.72;6244991;23;19911;-74
2023/06/09 10:49:08;;;;;;;;;;;;;;;-140.72;0.00;51694.94;6217570;23;19911;-74
2023/06/09 10:51:33;;;;;;;;;;;;;;;-140.72;0.00;51717.25;6218120;23;19935;-73
2023/06/09 10:54:07;;;;;;;;;;;;;;;-140.72;0.00;51654.34;6245109;23;19935;-77
2023/06/09 10:56:34;;;;;;;;;;;;;;;-140.72;0.00;51692.91;6245848;23;19915;-76
2023/06/09 10:58:59;;;;;;;;;;;;;;;-140.72;0.00;51682.75;6246080;23;19965;-73
2023/06/09 11:01:24;;;;;;;;;;;;;;;-140.72;0.00;51648.28;6245203;23;20271;-72
2023/06/09 11:03:50;;;;;;;;;;;;;;;-140.72;0.00;51628.00;6222143;23;20323;-79
2023/06/09 11:06:15;;;;;;;;;;;;;;;-140.72;0.00;51615.81;6246257;23;19940;-75
2023/06/09 11:08:59;;;;;;;;;;;;;;;-140.72;0.00;51623.94;6221035;23;19919;-77
2023/06/09 11:11:47;;;;;;;;;;;;;;;-140.72;0.00;51658.41;6222132;23;19912;-76
2023/06/09 11:14:32;;;;;;;;;;;;;;;-140.72;0.00;51680.72;6219543;23;19938;-78
2023/06/09 11:17:16;;;;;;;;;;;;;;;-140.72;0.00;51646.25;6218660;23;20292;-76
2023/06/09 11:19:41;;;;;;;;;;;;;;;-140.72;0.00;51615.81;6246043;23;20250;-76
2023/06/09 11:22:09;;;;;;;;;;;;;;;-140.72;0.00;51630.00;6244804;23;19986;-77
2023/06/09 11:24:50;;;;;;;;;;;;;;;-140.72;0.00;51603.63;6219334;23;19911;-77
2023/06/09 11:27:16;;;;;;;;;;;;;;;-140.72;0.00;51542.78;6245186;23;19982;-76
2023/06/09 11:30:04;;;;;;;;;;;;;;;-140.72;0.00;51591.47;6245854;23;20037;-79
2023/06/09 11:32:59;;;;;;;;;;;;;;;-140.72;0.00;51617.84;6245023;23;19961;-77
2023/06/09 11:35:43;;;;;;;;;;;;;;;-140.72;0.00;51567.13;6186696;23;19951;-75
2023/06/09 11:38:42;;;;;;;;;;;;;;;-140.72;0.00;51526.56;6218086;23;19968;-77
2023/06/09 11:41:10;;;;;;;;;;;;;;;-140.72;0.00;51542.78;6244070;23;19957;-76
2023/06/09 11:43:35;;;;;;;;;;;;;;;-140.72;0.00;51494.09;6244189;22;19972;-77
2023/06/09 11:46:01;;;;;;;;;;;;;;;-140.72;0.00;51481.91;6244519;23;20340;-76
2023/06/09 11:48:26;;;;;;;;;;;;;;;-140.72;0.00;51483.94;6244559;23;19943;-76
2023/06/09 11:50:51;;;;;;;;;;;;;;;-140.72;0.00;51510.31;6244836;23;19965;-76
2023/06/09 11:53:21;;;;;;;;;;;;;;;-140.72;0.00;51477.88;6217705;23;19911;-76
2023/06/09 11:55:46;;;;;;;;;;;;;;;-140.72;0.00;51449.47;6217092;23;19918;-77
2023/06/09 11:58:14;;;;;;;;;;;;;;;-140.72;0.00;51376.44;6244429;23;20018;-77
2023/06/09 12:00:41;;;;;;;;;;;;;;;-140.72;0.00;51400.78;6217460;23;19912;-77
2023/06/09 12:03:07;;;;;;;;;;;;;;;-140.72;0.00;51388.59;6217296;23;19912;-76
2023/06/09 12:05:32;;;;;;;;;;;;;;;-140.72;0.00;51406.88;6244449;23;19916;-77
2023/06/09 12:07:57;;;;;;;;;;;;;;;-140.72;0.00;51390.63;6217167;23;19918;-75
2023/06/09 12:10:28;;;;;;;;;;;;;;;-140.72;0.00;51343.97;6218631;23;19969;-77
2023/06/09 12:12:55;;;;;;;;;;;;;;;-140.72;0.00;51380.50;6247196;23;20288;-77
2023/06/09 12:15:22;;;;;;;;;;;;;;;-140.72;0.00;51354.13;6246442;23;19912;-78
2023/06/09 12:17:49;;;;;;;;;;;;;;;-140.72;0.00;51307.47;6247135;23;19981;-77
2023/06/09 12:20:23;;;;;;;;;;;;;;;-140.72;0.00;51341.94;6255723;23;19916;-77
2023/06/09 12:22:49;;;;;;;;;;;;;;;-140.72;0.00;51331.81;6248589;23;19995;-75
2023/06/09 12:25:20;;;;;;;;;;;;;;;-140.72;0.00;51321.66;6250056;23;19912;-76
2023/06/09 12:27:46;;;;;;;;;;;;;;;-140.72;0.00;51317.59;6248461;23;19918;-78